Terminal Aerodrome Forecast
Issued by NWS

Home | Current Version | Previous Version | Text Only | Print | Product List | Glossary On
Versions: 1 2 3 4 5 6 7 8 9 10 11 12 13
000
FTUS42 KTBW 111100
TAFRSW
TAF
KRSW 111120Z 1112/1212 VRB04KT P6SM FEW250
     FM111500 11006KT P6SM SCT030 SCT150
     FM111900 19007KT P6SM VCTS BKN035CB BKN150
     FM112200 VRB05KT P6SM VCTS BKN040CB BKN200
     FM120100 VRB04KT P6SM SCT100 SCT250=

USA.gov is the U.S. government's official web portal to all federal, state and local government web resources and services.